Cloverdale, Iowa
Current Conditions -  °F | °C
As of 4:55 AM on Friday 19 Dec 2014 (Local Time) from KSHL Reporting Station
Haze Haze  
Wind Chill: 20°   Ceiling: 700
Heat Index: 28°   Visibility: 4mi
Dew Point: 28°   Wind: 8mph
Humidity: 100%   Direction: 180°S
Pressure: 30.16"   Gusts: NA
Location:  43.4213°N, 95.7453°W
Report Text: KSHL 191055Z AUTO 18007KT 4SM BR OVC007 M02/M02 A3016 RMK AO2
Loading
Personal Weather Stations






























Interactive Weather Map New forecast layout! Learn more

10-Day Weather Forecast

Advertisements
Track Severe Weather on mobile